Gilze Rijen Air Base

EHGR · 北布拉班特省, 荷兰

罗盘
风向 的 风向 的 风向 到 风向 240° Gilze Rijen Air Base 2/20
风: 4 kt, 2 beaufort

3 kt

3 kt
改变
0 1.000 2.000 3.000 4.000 5.000
FEW 2.000 ft
SCT 2.400 ft
BKN 3.100 ft
METAR EHGR 020355Z AUTO 24004KT 210V270 9999 -RA FEW020 SCT024 BKN031 13/13 Q1015 WHT

METAR Gilze Rijen Air Base - EHGR/GLZ

Gilze Rijen Air Base是Breda,荷兰中的中型机场。 该机场有2条跑道: 2/20 和 10/28. 该领域的国际民航组织标志是EHGR 它的国际航空运输协会代码是GLZ.

这份报告是针对2022年10月2日 05:55, 当地时间在Gilze Rijen Air Base进行的。

机场观察

风向为240°,速度为4 kt。 风向在210°和270°之间变化。

可见度为10 km 或者更多。

有几云在2.000 ft的高度, 疏云,零星散落的云朵在2.400 ft的高度 和 碎云在3.100 ft的高度。 破损或更高的上限为3.100 ft。

当前天气为光 雨。 温度和风寒是13 °C。 露点为13 °C,相对湿度为100%。 海平面上的气压为1015 hPa (QNH)。

白天

今天,太阳从07:42升起,在19:16降落。 这适用于Gilze Rijen Air Base,世界夏令时可能有所不同。 当地时间与世界标准时间之间的时差为+2 小时。 夏令时目前正在进行中。

公司介绍

在这个机场,你可以找到飞行俱乐部。 本场上唯一已知的公司是GLC Illustrious。

体会

到Vliegles.nl去找飞行课程,跳伞和其他飞行体验。 浏览页面,了解Gilze Rijen Air Base附近所有可用的活动。 你也可以使用搜索功能来寻找你所在地附近的特定飞行课程、跳伞或其他飞行体验。

跑道

Id 标题 侧风 逆风 侧风 %
2/20 018°-198° 3 kt 3 kt 67 %
10/28 098°-278° 2 kt 3 kt 62 %

逆风成分最大的方向会被突出显示,并用于横风计算。 这并不一定意味着这个方向在使用。

乌云

2.000 ft FEW 几云
2.400 ft SCT 疏云,零星散落的云朵
3.100 ft BKN 碎云

温度 & 天气

天气 光 雨
温度 13 °C
露点 13 °C
相对湿度 100%
Kp-index 1 (0-9)

白天

日出
07:42 (1h 28m)
中午
13:29
日落
19:16

小工具

你想在你的网站上有一个关于Gilze Rijen Air Base的当前航空天气(METAR)的小部件吗?

</> 显示HTML代码

我们和第三方通过cookies跟踪您在我们网站上的上网行为。如果您继续,我们认为您同意我们的cookie政策。 了解更多